Auburn University, Alabama
Current Conditions -  °F | °C
As of 4:35 AM on Sunday 23 Nov 2014 (Local Time) from KAUO Reporting Station
Overcast Overcast  
Wind Chill: 54°   Ceiling: 500
Heat Index: 54°   Visibility: 10mi
Dew Point: 52°   Wind: 10mph
Humidity: 94%   Direction: 100°E
Pressure: 29.98"   Gusts: 18mph
Location:  32.61°N, 85.48°W
Report Text: KAUO 231035Z AUTO 10009G16KT 10SM OVC005 12/11 A2998 RMK AO1 P0001
Loading
Personal Weather Stations






























Interactive Weather Map New forecast layout! Learn more

10-Day Weather Forecast

Advertisements
Track Severe Weather on mobile